Huvudsida
METAR-TAF:

METAR-TAF

Flygplatser :

Grazzanise, Italien

latitud: 41-03N, longitud: 014-04E, höjd: 9 m

Aktuellt väderrapport

Denna rapport gjordes för 35 minuter sedan, klockan 06:55 UTC
Vind 13 kt från nord
Temperatur 13°C
Fuktighet 54%
Tryck 1017 hPa
Sikt 10 km eller mer
Inga moln under 1 500 m eller inga cumulonimbus

METAR: LIRM 050655Z 36013KT CAVOK 13/04 Q1017 RMK BKN FEW100 SCT180 VIS MIN 9999 WIND THR06 34013KT BLU

Tid: 09:30 (07:30 UTC)

Väderprognos

Denna rapport gjordes för 2 timmar och 30 minuter sedan, klockan 05:00 UTC
Prognos gäller från 05 kl. 06 UTC till 05 kl. 15 UTC
Vind 12 kt från nord
Sikt 10 km eller mer
Spridda moln på en höjd av 5500 ft

TAF: LIRM 050500Z 0506/0515 36012KT 9999 SCT055

Aktuella väderrapporter och prognoser från 4000 flygplatser (METAR- och TAF-rapporter).

De tillgängliga stationerna syns som gula och röda prickar på kartan.

För musen över prickarna för att se namnen på stationerna.

Klicka sedan för att få väderrapporter och prognoser.

För att ändra kartan: Klicka på de gröna knapparna med ett svart kors på för att zooma in; den gröna knappen med ett streck på för att zooma ut; eller på de gröna pilarna för angränsande kartor.


METAR-TAF: